createdAt,value
2018-04-19T00:00:32.697Z,75.1
2018-04-19T00:05:32.748Z,75
2018-04-19T00:10:32.805Z,75.2
2018-04-19T00:15:32.816Z,74.5
2018-04-19T00:20:32.740Z,75.2
2018-04-19T00:25:32.879Z,76.8
2018-04-19T00:30:34.701Z,76.8
2018-04-19T00:35:34.594Z,76.3
2018-04-19T00:40:48.060Z,76.2
2018-04-19T00:45:47.899Z,75.5
2018-04-19T00:50:47.894Z,76.2
2018-04-19T00:55:47.852Z,76.6
2018-04-19T01:00:47.864Z,75.9
2018-04-19T01:05:47.662Z,76.2
2018-04-19T01:10:47.825Z,76
2018-04-19T01:15:49.321Z,75.6
2018-04-19T01:20:49.177Z,77.8
2018-04-19T01:26:02.389Z,79.2
2018-04-19T01:31:02.292Z,79.4
2018-04-19T01:36:02.289Z,79.3
2018-04-19T01:41:02.271Z,78
2018-04-19T01:46:02.304Z,77.6
2018-04-19T01:51:02.263Z,77.7
2018-04-19T01:56:02.396Z,78.1
2018-04-19T02:01:02.312Z,77.8
2018-04-19T02:06:02.353Z,78.5
2018-04-19T02:11:16.120Z,78.2
2018-04-19T02:16:16.020Z,77.6
2018-04-19T02:21:15.856Z,77.3
2018-04-19T02:26:15.987Z,78.2
2018-04-19T02:31:16.016Z,78.4
2018-04-19T02:36:16.060Z,78.1
2018-04-19T02:41:15.824Z,78.8
2018-04-19T02:46:17.700Z,78.1
2018-04-19T02:51:17.568Z,78.8
2018-04-19T02:56:30.644Z,78.4
2018-04-19T03:01:30.582Z,79.7
2018-04-19T03:06:30.591Z,81.8
2018-04-19T03:11:30.650Z,80.9
2018-04-19T03:16:30.766Z,81.9
2018-04-19T03:21:30.794Z,80.9
2018-04-19T03:26:30.813Z,80.5
2018-04-19T03:31:32.228Z,80.3
2018-04-19T03:36:32.121Z,79.8
2018-04-19T03:41:45.081Z,80.9
2018-04-19T03:46:44.880Z,81.1
2018-04-19T03:51:44.924Z,80.5
2018-04-19T03:56:44.804Z,80
2018-04-19T04:01:44.948Z,80.2
2018-04-19T04:06:44.935Z,80.2
2018-04-19T04:11:44.827Z,79.5
2018-04-19T04:16:45.101Z,79.2
2018-04-19T04:21:45.065Z,80.7
2018-04-19T04:26:58.185Z,79.9
2018-04-19T04:31:57.892Z,80.3
2018-04-19T04:36:58.009Z,79.8
2018-04-19T04:41:58.065Z,80.9
2018-04-19T04:46:57.898Z,81.5
2018-04-19T04:51:57.943Z,80
2018-04-19T04:56:58.021Z,80.3
2018-04-19T05:02:00.638Z,80.5
2018-04-19T05:07:00.367Z,79.6
2018-04-19T05:12:11.625Z,78.4
2018-04-19T05:17:11.336Z,78.7
2018-04-19T05:22:11.420Z,78.8
2018-04-19T05:27:11.599Z,79.1
2018-04-19T05:32:11.395Z,79.3
2018-04-19T05:37:11.569Z,77.6
2018-04-19T05:42:11.397Z,76.3
2018-04-19T05:47:11.461Z,76.3
2018-04-19T05:52:11.537Z,75.6
2018-04-19T05:57:11.573Z,76
2018-04-19T06:02:11.614Z,75.4
2018-04-19T06:07:11.550Z,74.4
2018-04-19T06:12:12.819Z,72.2
2018-04-19T06:17:12.777Z,70.9
2018-04-19T06:22:25.305Z,68.6
2018-04-19T06:27:25.020Z,69.9
2018-04-19T06:32:25.029Z,67.3
2018-04-19T06:37:25.161Z,67.7
2018-04-19T06:42:25.193Z,67
2018-04-19T06:47:25.233Z,66.8
2018-04-19T06:52:25.039Z,67.2
2018-04-19T06:57:26.125Z,65.6
2018-04-19T07:02:26.056Z,65
2018-04-19T07:07:39.327Z,65.4
2018-04-19T07:12:39.115Z,65.9
2018-04-19T07:17:39.176Z,64.8
2018-04-19T07:22:39.357Z,65.5
2018-04-19T07:27:39.436Z,64.8
2018-04-19T07:32:39.225Z,61
2018-04-19T07:37:39.358Z,62.1
2018-04-19T07:42:39.432Z,59
2018-04-19T07:47:39.337Z,55.2
2018-04-19T07:52:39.400Z,54.1
2018-04-19T07:57:39.177Z,55.6
2018-04-19T08:02:39.353Z,54.7
2018-04-19T08:07:40.300Z,53.2
2018-04-19T08:12:40.103Z,53
2018-04-19T08:17:53.452Z,52.6
2018-04-19T08:22:53.325Z,51.8
2018-04-19T08:27:53.323Z,51.6
2018-04-19T08:32:53.182Z,49.9
2018-04-19T08:37:53.446Z,49.1
2018-04-19T08:42:53.349Z,49.1
2018-04-19T08:47:53.404Z,48.9
2018-04-19T08:52:55.823Z,49.1
2018-04-19T08:57:55.725Z,47.8
2018-04-19T09:03:08.288Z,47.2
2018-04-19T09:08:08.192Z,48.6
2018-04-19T09:13:08.138Z,48.1
2018-04-19T09:18:08.182Z,46.9
2018-04-19T09:23:08.127Z,47.6
2018-04-19T09:28:07.991Z,46.1
2018-04-19T09:33:08.213Z,45.3
2018-04-19T09:38:08.154Z,43.9
2018-04-19T09:43:08.213Z,45
2018-04-19T09:48:08.242Z,45.3
2018-04-19T09:53:08.041Z,44
2018-04-19T09:58:08.168Z,44.5
2018-04-19T10:03:10.397Z,43.1
2018-04-19T10:08:10.135Z,38.5
2018-04-19T10:13:24.393Z,39.9
2018-04-19T10:18:24.222Z,38.2
2018-04-19T10:23:24.365Z,36.7
2018-04-19T10:28:24.276Z,37.5
2018-04-19T10:33:24.232Z,37
2018-04-19T10:38:24.141Z,35.4
2018-04-19T10:43:24.258Z,36
2018-04-19T10:48:29.638Z,33.9
2018-04-19T10:53:29.584Z,31.2
2018-04-19T10:58:42.715Z,32.1
2018-04-19T11:03:42.457Z,31.6
2018-04-19T11:08:42.685Z,32
2018-04-19T11:13:42.800Z,32.3
2018-04-19T11:18:42.930Z,31.5
2018-04-19T11:23:44.581Z,30.8
2018-04-19T11:28:44.358Z,31.7
2018-04-19T11:33:44.375Z,30.7
2018-04-19T11:38:44.320Z,32.6
2018-04-19T11:43:44.336Z,32.1
2018-04-19T11:48:44.367Z,31.9
2018-04-19T11:53:44.278Z,31.9
2018-04-19T11:58:45.931Z,30.4
2018-04-19T12:03:45.817Z,30.1
2018-04-19T12:08:58.852Z,29.9
2018-04-19T12:13:58.767Z,30.4
2018-04-19T12:18:58.813Z,31.2
2018-04-19T12:23:58.732Z,32.5
2018-04-19T12:28:58.784Z,30.8
2018-04-19T12:33:58.810Z,31.6
2018-04-19T12:38:58.748Z,32
2018-04-19T12:43:58.759Z,31.9
2018-04-19T12:49:01.393Z,31.8
2018-04-19T12:54:13.486Z,32.8
2018-04-19T12:59:13.439Z,33.1
2018-04-19T13:04:13.242Z,32.9
2018-04-19T13:09:13.412Z,32.9
2018-04-19T13:14:13.241Z,32.6
2018-04-19T13:19:13.222Z,32.7
2018-04-19T13:24:13.223Z,32.3
2018-04-19T13:29:13.463Z,33.1
2018-04-19T13:34:13.357Z,33.6
2018-04-19T13:39:13.372Z,34.1
2018-04-19T13:44:13.398Z,32.9
2018-04-19T13:49:13.498Z,32.8
2018-04-19T13:54:14.154Z,32.8
2018-04-19T13:59:13.897Z,33.2
2018-04-19T14:04:27.167Z,34.3
2018-04-19T14:09:26.914Z,34.1
2018-04-19T14:14:27.095Z,33.1
2018-04-19T14:19:26.902Z,34.9
2018-04-19T14:24:27.048Z,34.1
2018-04-19T14:29:28.602Z,34.6
2018-04-19T14:34:28.606Z,34.2
2018-04-19T14:39:28.754Z,35.4
2018-04-19T14:44:29.011Z,35.4
2018-04-19T14:49:42.221Z,36
2018-04-19T14:54:42.151Z,35.9
2018-04-19T14:59:41.965Z,35.4
2018-04-19T15:04:41.991Z,36.1
2018-04-19T15:09:41.953Z,37.2
2018-04-19T15:14:41.968Z,36.4
2018-04-19T15:19:41.960Z,35.9
2018-04-19T15:24:42.199Z,36.8
2018-04-19T15:29:41.988Z,37.1
2018-04-19T15:34:42.132Z,37.4
2018-04-19T15:39:42.147Z,36.5
2018-04-19T15:44:42.225Z,37.6
2018-04-19T15:49:45.123Z,37.3
2018-04-19T15:54:44.860Z,38
2018-04-19T15:59:56.330Z,37.9
2018-04-19T16:04:56.242Z,39.2
2018-04-19T16:09:56.208Z,39.4
2018-04-19T16:14:56.406Z,39.7
2018-04-19T16:19:56.282Z,39.6
2018-04-19T16:24:56.267Z,39.2
2018-04-19T16:29:56.301Z,39.4
2018-04-19T16:34:59.708Z,39.6
2018-04-19T16:40:00.066Z,39.5
2018-04-19T16:45:14.378Z,40.8
2018-04-19T16:50:14.270Z,41
2018-04-19T16:55:14.569Z,40.3
2018-04-19T17:00:14.098Z,41.6
2018-04-19T17:05:14.130Z,41.8
2018-04-19T17:10:14.174Z,42.6
2018-04-19T17:15:14.189Z,42.3
2018-04-19T17:20:14.197Z,43.2
2018-04-19T17:25:14.181Z,43.2
2018-04-19T17:30:14.190Z,42.6
2018-04-19T17:35:14.196Z,43.3
2018-04-19T17:40:14.202Z,43.3
2018-04-19T17:45:18.492Z,43.7
2018-04-19T17:50:18.193Z,44.2
2018-04-19T17:55:32.862Z,44.1
2018-04-19T18:00:32.762Z,44.6
2018-04-19T18:05:32.838Z,44.4
2018-04-19T18:10:32.595Z,44.1
2018-04-19T18:15:32.672Z,44.9
2018-04-19T18:20:33.890Z,44.9
2018-04-19T18:25:33.902Z,45.6
2018-04-19T18:30:36.105Z,47.2
2018-04-19T18:35:35.777Z,47.5
2018-04-19T18:40:46.938Z,49.1
2018-04-19T18:45:47.045Z,51
2018-04-19T18:50:46.663Z,51.5
2018-04-19T18:55:46.639Z,53
2018-04-19T19:00:46.798Z,52.3
2018-04-19T19:05:46.663Z,53.1
2018-04-19T19:10:46.858Z,53.9
2018-04-19T19:15:47.883Z,54.2
2018-04-19T19:20:47.458Z,55
2018-04-19T19:26:00.622Z,56.1
2018-04-19T19:31:00.358Z,55.8
2018-04-19T19:36:00.387Z,56.3
2018-04-19T19:41:00.442Z,57.6
2018-04-19T19:46:00.482Z,57.4
2018-04-19T19:51:00.721Z,58.4
2018-04-19T19:56:00.382Z,59.2
2018-04-19T20:01:01.377Z,60.1
2018-04-19T20:06:01.080Z,60.4
2018-04-19T20:11:13.971Z,60.3
2018-04-19T20:16:13.597Z,62.5
2018-04-19T20:21:13.656Z,61.8
2018-04-19T20:26:13.921Z,61.5
2018-04-19T20:31:13.682Z,62.8
2018-04-19T20:36:13.685Z,63.3
2018-04-19T20:41:13.907Z,63
2018-04-19T20:46:14.271Z,64.1
2018-04-19T20:51:14.096Z,63.7
2018-04-19T20:56:26.992Z,65.7
2018-04-19T21:01:26.720Z,65.6
2018-04-19T21:06:26.698Z,65.6
2018-04-19T21:11:26.780Z,66.6
2018-04-19T21:16:27.397Z,67.6
2018-04-19T21:21:26.862Z,67.7
2018-04-19T21:26:29.607Z,66.8
2018-04-19T21:31:28.396Z,68.8
2018-04-19T21:36:28.070Z,68.1
2018-04-19T21:41:41.335Z,68.3
2018-04-19T21:46:41.083Z,67.9
2018-04-19T21:51:41.343Z,67.8
2018-04-19T21:56:41.042Z,68.6
2018-04-19T22:01:41.023Z,68.4
2018-04-19T22:06:41.076Z,69.3
2018-04-19T22:11:41.321Z,70.2
2018-04-19T22:16:41.247Z,69.6
2018-04-19T22:21:41.242Z,71.6
2018-04-19T22:26:41.163Z,71
2018-04-19T22:31:41.097Z,70.6
2018-04-19T22:36:41.103Z,71
2018-04-19T22:41:41.385Z,71.2
2018-04-19T22:46:41.264Z,70.4
2018-04-19T22:51:54.936Z,70.9
2018-04-19T22:56:54.873Z,71.8
2018-04-19T23:01:54.654Z,72.1
2018-04-19T23:06:54.866Z,72.2
2018-04-19T23:11:54.862Z,74.1
2018-04-19T23:16:54.651Z,73.3
2018-04-19T23:21:54.840Z,73.5
2018-04-19T23:26:57.640Z,72.6
2018-04-19T23:31:57.343Z,73.1
2018-04-19T23:37:08.353Z,73.4
2018-04-19T23:42:08.263Z,73.2
2018-04-19T23:47:08.323Z,73.3
2018-04-19T23:52:09.350Z,74.1
2018-04-19T23:57:08.262Z,74.4
